createdAt,value
2023-01-19T00:00:00.120Z,98793.69
2023-01-19T00:02:28.936Z,98800.60
2023-01-19T00:04:58.753Z,98805.30
2023-01-19T00:07:27.519Z,98815.95
2023-01-19T00:09:56.089Z,98814.14
2023-01-19T00:12:25.100Z,98818.19
2023-01-19T00:14:53.986Z,98817.63
2023-01-19T00:17:22.665Z,98826.39
2023-01-19T00:19:51.361Z,98830.34
2023-01-19T00:22:21.494Z,98833.91
2023-01-19T00:24:55.177Z,98838.88
2023-01-19T00:27:26.923Z,98842.56
2023-01-19T00:29:59.284Z,98843.80
2023-01-19T00:32:31.156Z,98845.19
2023-01-19T00:35:01.249Z,98845.27
2023-01-19T00:37:29.776Z,98849.43
2023-01-19T00:39:58.636Z,98846.41
2023-01-19T00:42:44.765Z,98846.58
2023-01-19T00:45:23.816Z,98847.16
2023-01-19T00:47:57.413Z,98849.95
2023-01-19T00:50:28.518Z,98860.17
2023-01-19T00:52:58.381Z,98862.08
2023-01-19T00:55:30.986Z,98870.67
2023-01-19T00:58:01.520Z,98873.15
2023-01-19T01:00:32.757Z,98877.83
2023-01-19T01:03:06.194Z,98876.23
2023-01-19T01:05:38.408Z,98883.66
2023-01-19T01:08:10.608Z,98888.02
2023-01-19T01:10:45.395Z,98893.69
2023-01-19T01:13:21.976Z,98894.36
2023-01-19T01:15:57.947Z,98896.27
2023-01-19T01:18:32.280Z,98899.60
2023-01-19T01:21:07.339Z,98897.23
2023-01-19T01:23:39.718Z,98892.36
2023-01-19T01:26:14.367Z,98896.41
2023-01-19T01:28:42.889Z,98899.85
2023-01-19T01:31:11.363Z,98899.62
2023-01-19T01:33:42.033Z,98903.17
2023-01-19T01:36:12.220Z,98912.90
2023-01-19T01:38:41.737Z,98916.73
2023-01-19T01:41:11.614Z,98920.22
2023-01-19T01:43:49.074Z,98918.64
2023-01-19T01:46:18.491Z,98922.48
2023-01-19T01:48:53.582Z,98920.89
2023-01-19T01:51:34.657Z,98918.33
2023-01-19T01:54:12.559Z,98916.33
2023-01-19T01:56:47.128Z,98923.52
2023-01-19T01:59:29.908Z,98925.84
2023-01-19T02:02:19.372Z,98924.80
2023-01-19T02:04:55.621Z,98927.81
2023-01-19T02:08:19.789Z,98925.20
2023-01-19T02:11:15.320Z,98920.73
2023-01-19T02:13:49.701Z,98922.34
2023-01-19T02:16:21.662Z,98921.42
2023-01-19T02:18:54.862Z,98930.00
2023-01-19T02:22:09.859Z,98930.63
2023-01-19T02:24:43.506Z,98934.06
2023-01-19T02:27:16.235Z,98935.85
2023-01-19T02:29:47.713Z,98942.79
2023-01-19T02:32:20.910Z,98940.12
2023-01-19T02:34:52.761Z,98942.27
2023-01-19T02:37:22.553Z,98943.11
2023-01-19T02:39:53.794Z,98944.78
2023-01-19T02:42:33.125Z,98945.30
2023-01-19T02:45:08.311Z,98948.14
2023-01-19T02:47:41.042Z,98944.49
2023-01-19T02:50:34.107Z,98947.83
2023-01-19T02:53:23.166Z,98944.13
2023-01-19T02:55:59.207Z,98940.70
2023-01-19T02:58:39.748Z,98935.40
2023-01-19T03:01:59.040Z,98930.59
2023-01-19T03:04:46.120Z,98939.80
2023-01-19T03:07:22.081Z,98944.95
2023-01-19T03:10:14.369Z,98947.64
2023-01-19T03:12:54.935Z,98950.10
2023-01-19T03:15:34.227Z,98950.38
2023-01-19T03:18:03.787Z,98950.21
2023-01-19T03:20:32.671Z,98949.48
2023-01-19T03:23:03.697Z,98949.96
2023-01-19T03:25:35.787Z,98949.86
2023-01-19T03:28:05.302Z,98949.33
2023-01-19T03:30:40.951Z,98955.19
2023-01-19T03:33:16.400Z,98958.92
2023-01-19T03:35:49.573Z,98956.33
2023-01-19T03:38:22.669Z,98953.64
2023-01-19T03:40:52.952Z,98952.55
2023-01-19T03:43:23.210Z,98954.69
2023-01-19T03:45:54.685Z,98949.75
2023-01-19T03:48:25.038Z,98953.31
2023-01-19T03:50:57.340Z,98951.00
2023-01-19T03:53:31.012Z,98949.17
2023-01-19T03:56:04.225Z,98947.38
2023-01-19T03:58:37.963Z,98946.30
2023-01-19T04:01:13.024Z,98945.55
2023-01-19T04:03:47.175Z,98945.85
2023-01-19T04:06:18.736Z,98948.69
2023-01-19T04:08:51.583Z,98951.36
2023-01-19T04:11:23.353Z,98958.16
2023-01-19T04:13:56.131Z,98960.38
2023-01-19T04:16:28.499Z,98966.92
2023-01-19T04:19:01.801Z,98969.64
2023-01-19T04:21:33.380Z,98973.17
2023-01-19T04:24:07.570Z,98972.67
2023-01-19T04:26:38.115Z,98977.39
2023-01-19T04:29:09.350Z,98980.23
2023-01-19T04:31:41.641Z,98985.92
2023-01-19T04:34:18.244Z,98993.06
2023-01-19T04:36:52.516Z,98997.29
2023-01-19T04:39:24.712Z,99005.52
2023-01-19T04:41:56.236Z,99010.83
2023-01-19T04:44:29.721Z,99018.11
2023-01-19T04:47:03.130Z,99020.50
2023-01-19T04:49:39.513Z,99027.89
2023-01-19T04:52:11.981Z,99035.42
2023-01-19T04:54:43.239Z,99045.60
2023-01-19T04:57:12.037Z,99055.58
2023-01-19T04:59:40.694Z,99062.23
2023-01-19T05:02:09.664Z,99061.98
2023-01-19T05:04:38.471Z,99064.68
2023-01-19T05:07:07.173Z,99070.77
2023-01-19T05:09:36.053Z,99069.92
2023-01-19T05:12:05.122Z,99069.71
2023-01-19T05:14:33.823Z,99069.70
2023-01-19T05:17:07.002Z,99075.02
2023-01-19T05:19:37.542Z,99070.98
2023-01-19T05:22:07.390Z,99062.15
2023-01-19T05:24:36.045Z,99060.84
2023-01-19T05:27:04.750Z,99058.02
2023-01-19T05:29:33.527Z,99058.89
2023-01-19T05:32:02.246Z,99066.25
2023-01-19T05:34:31.221Z,99064.58
2023-01-19T05:36:59.998Z,99065.27
2023-01-19T05:39:29.997Z,99067.90
2023-01-19T05:41:58.601Z,99066.99
2023-01-19T05:44:27.778Z,99066.96
2023-01-19T05:46:58.124Z,99065.42
2023-01-19T05:49:26.788Z,99070.70
2023-01-19T05:52:00.389Z,99071.59
2023-01-19T05:54:32.931Z,99067.83
2023-01-19T05:57:03.412Z,99066.39
2023-01-19T05:59:32.896Z,99080.12
2023-01-19T06:02:01.999Z,99094.19
2023-01-19T06:04:30.877Z,99104.09
2023-01-19T06:07:00.496Z,99117.67
2023-01-19T06:09:30.111Z,99117.77
2023-01-19T06:11:59.814Z,99117.75
2023-01-19T06:14:28.398Z,99114.63
2023-01-19T06:16:57.092Z,99116.98
2023-01-19T06:19:26.589Z,99121.40
2023-01-19T06:21:56.288Z,99122.90
2023-01-19T06:24:25.791Z,99126.48
2023-01-19T06:26:55.312Z,99124.10
2023-01-19T06:29:24.075Z,99123.19
2023-01-19T06:31:53.378Z,99125.48
2023-01-19T06:34:22.558Z,99136.34
2023-01-19T06:36:52.081Z,99141.40
2023-01-19T06:39:22.438Z,99145.88
2023-01-19T06:41:51.740Z,99150.50
2023-01-19T06:44:20.516Z,99154.76
2023-01-19T06:46:49.500Z,99158.08
2023-01-19T06:49:18.284Z,99157.92
2023-01-19T06:51:46.907Z,99157.14
2023-01-19T06:54:15.864Z,99158.10
2023-01-19T06:56:44.664Z,99163.54
2023-01-19T06:59:13.317Z,99166.42
2023-01-19T07:01:42.072Z,99166.52
2023-01-19T07:04:14.500Z,99166.02
2023-01-19T07:06:43.180Z,99169.32
2023-01-19T07:09:15.600Z,99165.48
2023-01-19T07:11:45.362Z,99164.45
2023-01-19T07:14:15.670Z,99159.89
2023-01-19T07:16:44.601Z,99156.92
2023-01-19T07:19:14.592Z,99157.95
2023-01-19T07:21:43.895Z,99165.41
2023-01-19T07:24:12.466Z,99166.86
2023-01-19T07:26:41.891Z,99163.77
2023-01-19T07:29:11.805Z,99168.31
2023-01-19T07:31:44.240Z,99174.36
2023-01-19T07:34:13.145Z,99172.92
2023-01-19T07:36:41.734Z,99169.95
2023-01-19T07:39:10.421Z,99167.37
2023-01-19T07:41:39.945Z,99164.20
2023-01-19T07:44:09.444Z,99162.71
2023-01-19T07:46:38.113Z,99164.35
2023-01-19T07:49:06.904Z,99163.34
2023-01-19T07:51:37.222Z,99165.37
2023-01-19T07:54:08.880Z,99166.92
2023-01-19T07:56:37.565Z,99167.54
2023-01-19T07:59:07.975Z,99167.58
2023-01-19T08:01:41.156Z,99170.86
2023-01-19T08:04:11.419Z,99175.73
2023-01-19T08:06:40.592Z,99178.23
2023-01-19T08:09:09.378Z,99181.48
2023-01-19T08:11:38.887Z,99185.44
2023-01-19T08:14:08.130Z,99193.77
2023-01-19T08:16:37.388Z,99200.05
2023-01-19T08:19:06.085Z,99203.63
2023-01-19T08:21:36.306Z,99207.09
2023-01-19T08:24:05.380Z,99210.52
2023-01-19T08:26:36.659Z,99207.38
2023-01-19T08:29:07.055Z,99206.73
2023-01-19T08:31:35.813Z,99208.85
2023-01-19T08:34:04.629Z,99214.63
2023-01-19T08:36:33.589Z,99216.16
2023-01-19T08:39:02.312Z,99220.61
2023-01-19T08:41:30.990Z,99221.12
2023-01-19T08:43:59.789Z,99224.32
2023-01-19T08:46:28.535Z,99223.83
2023-01-19T08:48:57.464Z,99222.05
2023-01-19T08:51:26.240Z,99217.50
2023-01-19T08:53:54.932Z,99220.81
2023-01-19T08:56:23.627Z,99219.67
2023-01-19T08:59:07.646Z,99228.09
2023-01-19T09:01:37.979Z,99236.72
2023-01-19T09:04:06.760Z,99239.34
2023-01-19T09:06:35.790Z,99236.05
2023-01-19T09:09:04.904Z,99239.64
2023-01-19T09:11:34.994Z,99245.20
2023-01-19T09:14:04.483Z,99248.53
2023-01-19T09:16:33.075Z,99251.65
2023-01-19T09:19:01.666Z,99252.93
2023-01-19T09:21:32.381Z,99256.16
2023-01-19T09:24:01.166Z,99263.20
2023-01-19T09:26:31.087Z,99263.54
2023-01-19T09:29:01.613Z,99271.09
2023-01-19T09:31:30.525Z,99272.45
2023-01-19T09:34:00.317Z,99270.64
2023-01-19T09:36:29.104Z,99264.73
2023-01-19T09:38:57.806Z,99267.69
2023-01-19T09:41:27.005Z,99272.52
2023-01-19T09:43:58.557Z,99268.50
2023-01-19T09:46:40.320Z,99266.82
2023-01-19T09:49:18.709Z,99262.45
2023-01-19T09:51:49.271Z,99257.54
2023-01-19T09:54:19.930Z,99252.76
2023-01-19T09:56:52.493Z,99252.67
2023-01-19T09:59:27.342Z,99245.90
2023-01-19T10:02:14.540Z,99246.69
2023-01-19T10:04:49.426Z,99240.91
2023-01-19T10:07:37.622Z,99239.02
2023-01-19T10:10:22.581Z,99237.06
2023-01-19T10:13:06.509Z,99234.27
2023-01-19T10:15:49.151Z,99232.37
2023-01-19T10:18:33.882Z,99228.14
2023-01-19T10:21:36.057Z,99230.03
2023-01-19T10:24:08.218Z,99238.00
2023-01-19T10:26:43.505Z,99243.39
2023-01-19T10:29:34.997Z,99241.72
2023-01-19T10:32:13.277Z,99245.13
2023-01-19T10:34:42.277Z,99238.75
2023-01-19T10:37:18.709Z,99241.59
2023-01-19T10:39:53.604Z,99242.21
2023-01-19T10:42:22.371Z,99243.55
2023-01-19T10:44:50.842Z,99246.00
2023-01-19T10:47:21.479Z,99245.69
2023-01-19T10:49:50.434Z,99240.55
2023-01-19T10:52:35.041Z,99238.74
2023-01-19T10:55:07.972Z,99237.23
2023-01-19T10:57:39.229Z,99239.21
2023-01-19T11:00:35.987Z,99237.30
2023-01-19T11:03:06.644Z,99239.02
2023-01-19T11:05:36.561Z,99239.81
2023-01-19T11:08:23.393Z,99240.14
2023-01-19T11:11:04.668Z,99242.60
2023-01-19T11:13:37.009Z,99243.73
2023-01-19T11:16:30.854Z,99239.21
2023-01-19T11:19:02.901Z,99235.89
2023-01-19T11:21:33.304Z,99239.38
2023-01-19T11:24:09.289Z,99234.55
2023-01-19T11:26:51.535Z,99229.33
2023-01-19T11:29:27.951Z,99227.39
2023-01-19T11:32:15.015Z,99226.27
2023-01-19T11:34:52.483Z,99229.92
2023-01-19T11:37:21.524Z,99225.91
2023-01-19T11:39:59.756Z,99227.16
2023-01-19T11:42:32.168Z,99221.73
2023-01-19T11:45:10.624Z,99222.13
2023-01-19T11:47:40.924Z,99223.86
2023-01-19T11:50:23.206Z,99221.41
2023-01-19T11:53:26.288Z,99220.38
2023-01-19T11:56:06.310Z,99216.48
2023-01-19T11:58:40.105Z,99217.36
2023-01-19T12:01:25.722Z,99213.70
2023-01-19T12:04:11.824Z,99214.48
2023-01-19T12:06:47.974Z,99209.33
2023-01-19T12:09:53.587Z,99202.98
2023-01-19T12:12:32.240Z,99199.02
2023-01-19T12:15:33.436Z,99193.23
2023-01-19T12:18:05.850Z,99189.05
2023-01-19T12:20:44.730Z,99181.02
2023-01-19T12:23:29.186Z,99178.87
2023-01-19T12:26:17.639Z,99182.50
2023-01-19T12:28:48.832Z,99182.55
2023-01-19T12:31:20.615Z,99178.66
2023-01-19T12:33:51.550Z,99176.84
2023-01-19T12:36:42.486Z,99176.90
2023-01-19T12:39:23.658Z,99176.95
2023-01-19T12:42:13.458Z,99181.06
2023-01-19T12:44:43.862Z,99184.86
2023-01-19T12:47:16.587Z,99187.88
2023-01-19T12:49:47.887Z,99195.30
2023-01-19T12:52:25.850Z,99188.36
2023-01-19T12:55:14.148Z,99189.46
2023-01-19T12:58:01.139Z,99190.38
2023-01-19T13:00:37.561Z,99186.54
2023-01-19T13:03:16.461Z,99183.50
2023-01-19T13:05:53.961Z,99186.14
2023-01-19T13:08:29.082Z,99190.44
2023-01-19T13:11:00.874Z,99193.98
2023-01-19T13:14:07.916Z,99194.06
2023-01-19T13:16:38.262Z,99195.96
2023-01-19T13:19:09.005Z,99195.70
2023-01-19T13:21:48.761Z,99193.86
2023-01-19T13:24:23.846Z,99196.12
2023-01-19T13:27:05.566Z,99196.55
2023-01-19T13:29:36.876Z,99199.30
2023-01-19T13:32:18.169Z,99201.03
2023-01-19T13:34:53.230Z,99201.94
2023-01-19T13:37:27.089Z,99206.49
2023-01-19T13:39:59.881Z,99209.36
2023-01-19T13:42:39.415Z,99212.60
2023-01-19T13:45:38.379Z,99212.95
2023-01-19T13:48:10.160Z,99215.28
2023-01-19T13:50:45.217Z,99220.77
2023-01-19T13:53:20.839Z,99215.16
2023-01-19T13:56:07.289Z,99219.93
2023-01-19T13:58:36.208Z,99222.79
2023-01-19T14:01:05.102Z,99224.60
2023-01-19T14:03:34.841Z,99226.25
2023-01-19T14:06:04.093Z,99230.54
2023-01-19T14:08:34.302Z,99224.55
2023-01-19T14:11:03.615Z,99225.88
2023-01-19T14:13:34.510Z,99226.51
2023-01-19T14:16:21.056Z,99230.76
2023-01-19T14:19:00.527Z,99230.10
2023-01-19T14:21:39.075Z,99227.70
2023-01-19T14:24:17.398Z,99230.63
2023-01-19T14:26:54.998Z,99230.10
2023-01-19T14:29:33.294Z,99233.83
2023-01-19T14:32:02.073Z,99233.40
2023-01-19T14:34:43.154Z,99238.93
2023-01-19T14:37:22.806Z,99240.34
2023-01-19T14:39:55.683Z,99239.15
2023-01-19T14:42:27.639Z,99240.89
2023-01-19T14:44:57.662Z,99244.94
2023-01-19T14:47:39.171Z,99249.23
2023-01-19T14:50:35.795Z,99253.75
2023-01-19T14:53:09.322Z,99256.72
2023-01-19T14:55:44.795Z,99262.71
2023-01-19T14:58:18.444Z,99264.76
2023-01-19T15:00:49.730Z,99268.09
2023-01-19T15:03:18.682Z,99268.56
2023-01-19T15:05:48.540Z,99270.80
2023-01-19T15:08:21.985Z,99272.47
2023-01-19T15:10:50.756Z,99272.17
2023-01-19T15:13:21.780Z,99273.84
2023-01-19T15:15:50.636Z,99276.52
2023-01-19T15:18:28.486Z,99277.73
2023-01-19T15:21:03.095Z,99282.64
2023-01-19T15:23:34.769Z,99282.52
2023-01-19T15:26:05.765Z,99280.88
2023-01-19T15:28:34.922Z,99282.48
2023-01-19T15:31:04.138Z,99289.36
2023-01-19T15:33:33.321Z,99290.40
2023-01-19T15:36:02.808Z,99295.61
2023-01-19T15:38:31.312Z,99298.30
2023-01-19T15:41:00.173Z,99300.06
2023-01-19T15:43:28.859Z,99300.85
2023-01-19T15:46:02.637Z,99303.33
2023-01-19T15:48:31.460Z,99303.24
2023-01-19T15:51:01.069Z,99300.58
2023-01-19T15:53:31.210Z,99296.81
2023-01-19T15:56:01.416Z,99296.35
2023-01-19T15:58:30.932Z,99296.06
2023-01-19T16:01:03.511Z,99297.52
2023-01-19T16:03:34.458Z,99299.70
2023-01-19T16:06:04.543Z,99301.00
2023-01-19T16:08:34.248Z,99307.54
2023-01-19T16:11:07.512Z,99307.51
2023-01-19T16:13:37.075Z,99311.58
2023-01-19T16:16:09.192Z,99315.80
2023-01-19T16:18:38.654Z,99321.66
2023-01-19T16:21:07.511Z,99324.42
2023-01-19T16:23:36.201Z,99323.80
2023-01-19T16:26:08.594Z,99328.60
2023-01-19T16:28:38.779Z,99325.09
2023-01-19T16:31:08.395Z,99323.23
2023-01-19T16:33:39.288Z,99323.20
2023-01-19T16:36:21.277Z,99322.96
2023-01-19T16:38:51.032Z,99326.40
2023-01-19T16:41:20.639Z,99325.08
2023-01-19T16:43:55.078Z,99324.66
2023-01-19T16:46:30.309Z,99325.03
2023-01-19T16:49:05.029Z,99329.48
2023-01-19T16:51:34.237Z,99332.55
2023-01-19T16:54:03.930Z,99334.02
2023-01-19T16:56:34.628Z,99336.73
2023-01-19T16:59:03.865Z,99335.77
2023-01-19T17:01:33.798Z,99336.41
2023-01-19T17:04:03.398Z,99332.95
2023-01-19T17:06:35.962Z,99332.88
2023-01-19T17:09:07.105Z,99326.69
2023-01-19T17:11:41.882Z,99325.02
2023-01-19T17:14:16.768Z,99325.90
2023-01-19T17:16:48.031Z,99325.73
2023-01-19T17:19:20.035Z,99326.27
2023-01-19T17:21:50.917Z,99327.92
2023-01-19T17:24:22.716Z,99325.23
2023-01-19T17:26:52.578Z,99325.45
2023-01-19T17:29:22.327Z,99328.70
2023-01-19T17:31:52.585Z,99334.42
2023-01-19T17:34:22.781Z,99338.15
2023-01-19T17:36:52.751Z,99340.46
2023-01-19T17:39:25.687Z,99342.99
2023-01-19T17:41:56.659Z,99347.09
2023-01-19T17:44:30.032Z,99351.61
2023-01-19T17:47:04.066Z,99355.45
2023-01-19T17:49:34.415Z,99356.67
2023-01-19T17:52:04.633Z,99359.83
2023-01-19T17:54:37.513Z,99364.44
2023-01-19T17:57:11.492Z,99365.55
2023-01-19T17:59:44.835Z,99365.42
2023-01-19T18:02:15.453Z,99368.24
2023-01-19T18:04:46.106Z,99368.56
2023-01-19T18:07:15.921Z,99374.17
2023-01-19T18:09:46.665Z,99375.90
2023-01-19T18:12:16.740Z,99373.65
2023-01-19T18:14:46.547Z,99372.66
2023-01-19T18:17:16.893Z,99375.09
2023-01-19T18:19:47.617Z,99372.19
2023-01-19T18:22:18.143Z,99373.84
2023-01-19T18:24:49.853Z,99367.46
2023-01-19T18:27:23.183Z,99368.61
2023-01-19T18:29:53.138Z,99372.55
2023-01-19T18:32:23.960Z,99377.23
2023-01-19T18:34:58.611Z,99375.38
2023-01-19T18:37:29.566Z,99374.02
2023-01-19T18:40:03.190Z,99372.98
2023-01-19T18:42:35.944Z,99372.40
2023-01-19T18:45:07.380Z,99374.66
2023-01-19T18:47:46.938Z,99375.36
2023-01-19T18:50:20.218Z,99374.85
2023-01-19T18:52:53.014Z,99378.05
2023-01-19T18:55:24.010Z,99379.33
2023-01-19T18:57:55.098Z,99384.63
2023-01-19T19:00:26.938Z,99386.98
2023-01-19T19:02:59.017Z,99388.88
2023-01-19T19:05:30.223Z,99391.44
2023-01-19T19:08:02.540Z,99391.92
2023-01-19T19:10:33.319Z,99395.66
2023-01-19T19:13:04.225Z,99401.20
2023-01-19T19:15:34.821Z,99406.77
2023-01-19T19:18:05.512Z,99410.04
2023-01-19T19:20:39.360Z,99412.02
2023-01-19T19:23:10.248Z,99414.05
2023-01-19T19:25:40.362Z,99414.02
2023-01-19T19:28:10.792Z,99416.48
2023-01-19T19:30:42.475Z,99414.66
2023-01-19T19:33:13.311Z,99418.95
2023-01-19T19:35:45.560Z,99422.90
2023-01-19T19:38:18.590Z,99429.18
2023-01-19T19:40:49.442Z,99432.96
2023-01-19T19:43:22.451Z,99439.45
2023-01-19T19:46:04.944Z,99441.16
2023-01-19T19:48:39.098Z,99446.01
2023-01-19T19:51:18.336Z,99443.73
2023-01-19T19:53:51.344Z,99452.53
2023-01-19T19:56:24.269Z,99456.73
2023-01-19T19:58:57.248Z,99460.57
2023-01-19T20:01:32.988Z,99464.90
2023-01-19T20:04:09.869Z,99471.36
2023-01-19T20:06:42.759Z,99469.69
2023-01-19T20:09:15.025Z,99469.39
2023-01-19T20:11:47.709Z,99475.36
2023-01-19T20:14:19.268Z,99477.86
2023-01-19T20:16:52.219Z,99480.52
2023-01-19T20:19:23.743Z,99485.16
2023-01-19T20:21:56.000Z,99489.76
2023-01-19T20:24:25.820Z,99490.41
2023-01-19T20:26:57.656Z,99488.41
2023-01-19T20:29:29.163Z,99485.80
2023-01-19T20:31:59.061Z,99483.02
2023-01-19T20:34:33.825Z,99479.14
2023-01-19T20:37:07.560Z,99476.05
2023-01-19T20:39:38.400Z,99477.78
2023-01-19T20:42:15.656Z,99481.40
2023-01-19T20:44:47.953Z,99481.03
2023-01-19T20:47:21.377Z,99484.98
2023-01-19T20:49:52.208Z,99490.95
2023-01-19T20:52:27.442Z,99490.54
2023-01-19T20:54:58.432Z,99492.59
2023-01-19T20:57:34.014Z,99493.95
2023-01-19T21:00:09.678Z,99497.55
2023-01-19T21:02:42.824Z,99498.36
2023-01-19T21:05:18.355Z,99491.04
2023-01-19T21:07:50.480Z,99493.21
2023-01-19T21:10:23.871Z,99495.88
2023-01-19T21:12:57.414Z,99497.78
2023-01-19T21:15:29.771Z,99497.94
2023-01-19T21:18:02.579Z,99504.13
2023-01-19T21:20:32.001Z,99507.95
2023-01-19T21:23:02.877Z,99509.30
2023-01-19T21:25:33.223Z,99504.19
2023-01-19T21:28:02.049Z,99508.05
2023-01-19T21:30:31.200Z,99507.81
2023-01-19T21:33:00.687Z,99505.59
2023-01-19T21:35:30.360Z,99509.31
2023-01-19T21:37:59.144Z,99510.31
2023-01-19T21:40:28.061Z,99513.88
2023-01-19T21:42:57.930Z,99513.47
2023-01-19T21:45:26.783Z,99516.63
2023-01-19T21:47:59.541Z,99517.94
2023-01-19T21:50:31.917Z,99512.70
2023-01-19T21:53:02.096Z,99507.10
2023-01-19T21:55:33.440Z,99504.39
2023-01-19T21:58:02.779Z,99505.56
2023-01-19T22:00:32.386Z,99506.05
2023-01-19T22:03:04.447Z,99507.94
2023-01-19T22:05:37.129Z,99512.97
2023-01-19T22:08:06.955Z,99515.54
2023-01-19T22:10:40.352Z,99517.41
2023-01-19T22:13:09.941Z,99521.48
2023-01-19T22:15:38.709Z,99525.17
2023-01-19T22:18:07.512Z,99523.41
2023-01-19T22:20:36.725Z,99529.55
2023-01-19T22:23:06.234Z,99531.52
2023-01-19T22:25:35.619Z,99537.25
2023-01-19T22:28:06.928Z,99541.69
2023-01-19T22:30:39.540Z,99550.36
2023-01-19T22:33:10.696Z,99549.23
2023-01-19T22:35:39.780Z,99548.83
2023-01-19T22:38:09.376Z,99549.52
2023-01-19T22:40:38.797Z,99554.40
2023-01-19T22:43:07.878Z,99557.06
2023-01-19T22:45:41.289Z,99558.07
2023-01-19T22:48:10.980Z,99561.27
2023-01-19T22:50:39.886Z,99565.30
2023-01-19T22:53:09.579Z,99565.17
2023-01-19T22:55:39.190Z,99570.45
2023-01-19T22:58:08.234Z,99569.52
2023-01-19T23:00:37.790Z,99566.76
2023-01-19T23:03:10.418Z,99569.01
2023-01-19T23:05:39.924Z,99570.08
2023-01-19T23:08:08.449Z,99566.33
2023-01-19T23:10:41.310Z,99571.86
2023-01-19T23:13:09.933Z,99570.94
2023-01-19T23:15:38.728Z,99568.58
2023-01-19T23:18:07.287Z,99569.58
2023-01-19T23:20:36.277Z,99571.92
2023-01-19T23:23:05.592Z,99574.06
2023-01-19T23:25:34.169Z,99572.35
2023-01-19T23:28:03.257Z,99573.98
2023-01-19T23:30:31.844Z,99577.52
2023-01-19T23:33:00.939Z,99579.95
2023-01-19T23:35:29.626Z,99583.65
2023-01-19T23:37:59.281Z,99583.05
2023-01-19T23:40:28.958Z,99584.70
2023-01-19T23:42:57.841Z,99587.75
2023-01-19T23:45:26.612Z,99592.55
2023-01-19T23:47:55.600Z,99594.50
2023-01-19T23:50:24.293Z,99595.79
2023-01-19T23:52:53.087Z,99598.15
2023-01-19T23:55:21.888Z,99599.14
2023-01-19T23:57:50.777Z,99600.77
